sensor_id;sensor_type;location;lat;lon;timestamp;pressure;altitude;pressure_sealevel;temperature;humidity
66176;BME280;52977;44.816;20.538;2023-08-30T00:00:42;98526.72;;;22.85;75.68
66176;BME280;52977;44.816;20.538;2023-08-30T00:03:08;98524.19;;;22.91;75.40
66176;BME280;52977;44.816;20.538;2023-08-30T00:05:38;98476.50;;;22.59;75.39
66176;BME280;52977;44.816;20.538;2023-08-30T00:08:05;98530.91;;;22.93;75.60
66176;BME280;52977;44.816;20.538;2023-08-30T00:10:32;98508.56;;;22.80;75.52
66176;BME280;52977;44.816;20.538;2023-08-30T00:12:58;98502.63;;;22.78;75.19
66176;BME280;52977;44.816;20.538;2023-08-30T00:15:24;98511.94;;;22.72;75.68
66176;BME280;52977;44.816;20.538;2023-08-30T00:17:50;98515.06;;;22.57;76.20
66176;BME280;52977;44.816;20.538;2023-08-30T00:20:36;98488.63;;;22.49;76.68
66176;BME280;52977;44.816;20.538;2023-08-30T00:23:02;98489.81;;;22.31;76.92
66176;BME280;52977;44.816;20.538;2023-08-30T00:25:29;98475.03;;;21.98;77.68
66176;BME280;52977;44.816;20.538;2023-08-30T00:27:55;98496.78;;;22.19;77.53
66176;BME280;52977;44.816;20.538;2023-08-30T00:30:21;98501.50;;;22.23;78.15
66176;BME280;52977;44.816;20.538;2023-08-30T00:32:47;98503.78;;;22.28;78.12
66176;BME280;52977;44.816;20.538;2023-08-30T00:35:13;98534.53;;;22.57;77.98
66176;BME280;52977;44.816;20.538;2023-08-30T00:37:39;98531.66;;;22.61;78.56
66176;BME280;52977;44.816;20.538;2023-08-30T00:40:06;98526.06;;;22.44;79.54
66176;BME280;52977;44.816;20.538;2023-08-30T00:42:32;98531.03;;;22.53;80.04
66176;BME280;52977;44.816;20.538;2023-08-30T00:44:59;98436.97;;;21.78;81.10
66176;BME280;52977;44.816;20.538;2023-08-30T00:47:25;98497.16;;;22.22;81.82
66176;BME280;52977;44.816;20.538;2023-08-30T00:49:51;98527.06;;;22.34;82.34
66176;BME280;52977;44.816;20.538;2023-08-30T00:52:17;98525.44;;;22.36;82.15
66176;BME280;52977;44.816;20.538;2023-08-30T00:54:43;98520.50;;;22.44;81.71
66176;BME280;52977;44.816;20.538;2023-08-30T00:57:10;98536.59;;;22.53;81.77
66176;BME280;52977;44.816;20.538;2023-08-30T00:59:36;98536.31;;;22.47;82.34
66176;BME280;52977;44.816;20.538;2023-08-30T01:02:04;98537.97;;;22.45;82.26
66176;BME280;52977;44.816;20.538;2023-08-30T01:04:32;98554.31;;;22.43;83.17
66176;BME280;52977;44.816;20.538;2023-08-30T01:06:58;98541.63;;;22.22;83.04
66176;BME280;52977;44.816;20.538;2023-08-30T01:09:28;98521.47;;;22.17;82.26
66176;BME280;52977;44.816;20.538;2023-08-30T01:14:34;98560.91;;;22.49;81.81
66176;BME280;52977;44.816;20.538;2023-08-30T01:17:05;98571.44;;;22.41;81.90
66176;BME280;52977;44.816;20.538;2023-08-30T01:19:59;98562.72;;;22.39;81.99
66176;BME280;52977;44.816;20.538;2023-08-30T01:22:53;98558.16;;;22.29;81.61
66176;BME280;52977;44.816;20.538;2023-08-30T01:25:51;98563.59;;;22.36;81.50
66176;BME280;52977;44.816;20.538;2023-08-30T01:28:23;98568.78;;;22.34;80.91
66176;BME280;52977;44.816;20.538;2023-08-30T01:30:52;98553.03;;;22.27;80.61
66176;BME280;52977;44.816;20.538;2023-08-30T01:33:20;98565.88;;;22.41;80.36
66176;BME280;52977;44.816;20.538;2023-08-30T01:35:47;98543.03;;;22.30;80.51
66176;BME280;52977;44.816;20.538;2023-08-30T01:38:13;98572.53;;;22.44;80.51
66176;BME280;52977;44.816;20.538;2023-08-30T01:40:42;98573.84;;;22.39;80.79
66176;BME280;52977;44.816;20.538;2023-08-30T01:43:09;98520.47;;;22.08;80.52
66176;BME280;52977;44.816;20.538;2023-08-30T01:45:39;98501.53;;;22.02;80.55
66176;BME280;52977;44.816;20.538;2023-08-30T01:48:09;98558.31;;;22.42;80.21
66176;BME280;52977;44.816;20.538;2023-08-30T01:50:39;98559.72;;;22.50;80.15
66176;BME280;52977;44.816;20.538;2023-08-30T01:53:08;98525.88;;;22.15;80.17
66176;BME280;52977;44.816;20.538;2023-08-30T01:55:35;98529.53;;;22.12;81.28
66176;BME280;52977;44.816;20.538;2023-08-30T01:58:02;98559.13;;;22.18;81.87
66176;BME280;52977;44.816;20.538;2023-08-30T02:00:29;98567.94;;;22.37;81.98
66176;BME280;52977;44.816;20.538;2023-08-30T02:02:56;98559.34;;;22.28;82.64
66176;BME280;52977;44.816;20.538;2023-08-30T02:05:22;98521.31;;;22.05;82.69
66176;BME280;52977;44.816;20.538;2023-08-30T02:07:58;98573.84;;;22.39;82.62
66176;BME280;52977;44.816;20.538;2023-08-30T02:10:30;98581.47;;;22.15;84.17
66176;BME280;52977;44.816;20.538;2023-08-30T02:12:57;98580.25;;;21.96;85.76
66176;BME280;52977;44.816;20.538;2023-08-30T02:15:24;98580.88;;;21.83;86.90
66176;BME280;52977;44.816;20.538;2023-08-30T02:17:51;98583.00;;;21.76;87.85
66176;BME280;52977;44.816;20.538;2023-08-30T02:20:18;98559.66;;;21.73;87.22
66176;BME280;52977;44.816;20.538;2023-08-30T02:22:44;98584.75;;;21.90;87.04
66176;BME280;52977;44.816;20.538;2023-08-30T02:25:10;98540.69;;;21.68;86.92
66176;BME280;52977;44.816;20.538;2023-08-30T02:27:36;98570.47;;;21.88;86.96
66176;BME280;52977;44.816;20.538;2023-08-30T02:30:03;98465.75;;;21.24;86.79
66176;BME280;52977;44.816;20.538;2023-08-30T02:32:29;98551.19;;;21.80;87.35
66176;BME280;52977;44.816;20.538;2023-08-30T02:34:56;98408.84;;;20.92;87.06
66176;BME280;52977;44.816;20.538;2023-08-30T02:37:22;98548.03;;;21.98;86.71
66176;BME280;52977;44.816;20.538;2023-08-30T02:39:49;98510.72;;;21.59;86.94
66176;BME280;52977;44.816;20.538;2023-08-30T02:42:16;98545.13;;;21.85;87.06
66176;BME280;52977;44.816;20.538;2023-08-30T02:44:42;98514.94;;;21.67;87.80
66176;BME280;52977;44.816;20.538;2023-08-30T02:47:08;98545.69;;;21.97;87.21
66176;BME280;52977;44.816;20.538;2023-08-30T02:49:34;98537.22;;;22.04;87.02
66176;BME280;52977;44.816;20.538;2023-08-30T02:52:01;98538.75;;;22.25;85.88
66176;BME280;52977;44.816;20.538;2023-08-30T02:54:27;98531.81;;;22.37;85.07
66176;BME280;52977;44.816;20.538;2023-08-30T02:56:53;98464.38;;;21.96;84.77
66176;BME280;52977;44.816;20.538;2023-08-30T02:59:19;98537.53;;;22.46;84.67
66176;BME280;52977;44.816;20.538;2023-08-30T03:01:45;98535.56;;;22.47;84.48
66176;BME280;52977;44.816;20.538;2023-08-30T03:04:14;98525.13;;;22.51;83.83
66176;BME280;52977;44.816;20.538;2023-08-30T03:06:40;98524.06;;;22.45;83.38
66176;BME280;52977;44.816;20.538;2023-08-30T03:09:06;98533.91;;;22.49;83.79
66176;BME280;52977;44.816;20.538;2023-08-30T03:11:36;98490.75;;;22.05;83.70
66176;BME280;52977;44.816;20.538;2023-08-30T03:14:02;98531.22;;;22.26;83.69
66176;BME280;52977;44.816;20.538;2023-08-30T03:16:28;98540.66;;;22.28;84.01
66176;BME280;52977;44.816;20.538;2023-08-30T03:18:55;98526.81;;;22.08;83.99
66176;BME280;52977;44.816;20.538;2023-08-30T03:21:21;98544.25;;;22.29;83.87
66176;BME280;52977;44.816;20.538;2023-08-30T03:23:47;98546.94;;;22.32;83.84
66176;BME280;52977;44.816;20.538;2023-08-30T03:26:15;98546.84;;;22.40;83.33
66176;BME280;52977;44.816;20.538;2023-08-30T03:28:43;98515.25;;;22.30;82.74
66176;BME280;52977;44.816;20.538;2023-08-30T03:33:43;98538.25;;;22.30;82.33
66176;BME280;52977;44.816;20.538;2023-08-30T03:36:10;98538.91;;;22.38;82.36
66176;BME280;52977;44.816;20.538;2023-08-30T03:38:37;98502.31;;;22.03;83.09
66176;BME280;52977;44.816;20.538;2023-08-30T03:41:05;98520.53;;;22.04;82.99
66176;BME280;52977;44.816;20.538;2023-08-30T03:43:32;98526.81;;;22.08;83.25
66176;BME280;52977;44.816;20.538;2023-08-30T03:46:00;98547.03;;;22.09;84.33
66176;BME280;52977;44.816;20.538;2023-08-30T03:48:27;98494.34;;;21.85;83.52
66176;BME280;52977;44.816;20.538;2023-08-30T03:50:54;98548.59;;;22.30;83.17
66176;BME280;52977;44.816;20.538;2023-08-30T03:53:21;98553.38;;;22.29;83.25
66176;BME280;52977;44.816;20.538;2023-08-30T03:55:47;98523.00;;;22.18;83.31
66176;BME280;52977;44.816;20.538;2023-08-30T03:58:14;98546.84;;;22.40;83.05
66176;BME280;52977;44.816;20.538;2023-08-30T04:00:39;98549.31;;;22.34;83.53
66176;BME280;52977;44.816;20.538;2023-08-30T04:03:08;98538.06;;;22.21;83.81
66176;BME280;52977;44.816;20.538;2023-08-30T04:05:35;98551.50;;;22.23;83.70
66176;BME280;52977;44.816;20.538;2023-08-30T04:08:02;98561.63;;;22.33;83.76
66176;BME280;52977;44.816;20.538;2023-08-30T04:10:37;98526.31;;;22.13;83.87
66176;BME280;52977;44.816;20.538;2023-08-30T04:13:03;98463.59;;;21.56;83.67
66176;BME280;52977;44.816;20.538;2023-08-30T04:15:34;98491.78;;;21.74;83.20
66176;BME280;52977;44.816;20.538;2023-08-30T04:18:00;98534.66;;;21.93;83.74
66176;BME280;52977;44.816;20.538;2023-08-30T04:20:26;98511.72;;;21.69;84.21
66176;BME280;52977;44.816;20.538;2023-08-30T04:22:52;98542.34;;;22.06;84.33
66176;BME280;52977;44.816;20.538;2023-08-30T04:25:21;98553.53;;;22.22;84.43
66176;BME280;52977;44.816;20.538;2023-08-30T04:27:47;98555.88;;;22.24;84.24
66176;BME280;52977;44.816;20.538;2023-08-30T04:30:15;98560.66;;;22.23;84.34
66176;BME280;52977;44.816;20.538;2023-08-30T04:32:42;98486.72;;;21.89;84.00
66176;BME280;52977;44.816;20.538;2023-08-30T04:35:08;98512.50;;;22.10;84.06
66176;BME280;52977;44.816;20.538;2023-08-30T04:37:35;98519.53;;;22.14;84.02
66176;BME280;52977;44.816;20.538;2023-08-30T04:40:01;98544.91;;;22.36;84.03
66176;BME280;52977;44.816;20.538;2023-08-30T04:42:29;98522.44;;;22.27;83.97
66176;BME280;52977;44.816;20.538;2023-08-30T04:44:58;98492.69;;;22.08;83.64
66176;BME280;52977;44.816;20.538;2023-08-30T04:47:30;98541.34;;;22.36;83.79
66176;BME280;52977;44.816;20.538;2023-08-30T04:49:59;98465.44;;;21.82;84.05
66176;BME280;52977;44.816;20.538;2023-08-30T04:52:25;98508.63;;;22.24;83.85
66176;BME280;52977;44.816;20.538;2023-08-30T04:54:54;98543.09;;;22.46;83.49
66176;BME280;52977;44.816;20.538;2023-08-30T04:57:22;98496.59;;;22.10;83.89
66176;BME280;52977;44.816;20.538;2023-08-30T04:59:49;98488.13;;;21.97;83.35
66176;BME280;52977;44.816;20.538;2023-08-30T05:02:15;98521.59;;;22.30;83.45
66176;BME280;52977;44.816;20.538;2023-08-30T05:04:52;98545.09;;;22.46;83.64
66176;BME280;52977;44.816;20.538;2023-08-30T05:07:19;98452.81;;;21.78;83.58
66176;BME280;52977;44.816;20.538;2023-08-30T05:09:45;98493.03;;;22.10;84.34
66176;BME280;52977;44.816;20.538;2023-08-30T05:12:11;98544.25;;;22.29;84.42
66176;BME280;52977;44.816;20.538;2023-08-30T05:14:38;98551.31;;;22.33;83.91
66176;BME280;52977;44.816;20.538;2023-08-30T05:17:05;98552.50;;;22.32;84.98
66176;BME280;52977;44.816;20.538;2023-08-30T05:19:31;98536.91;;;22.18;85.49
66176;BME280;52977;44.816;20.538;2023-08-30T05:21:57;98551.97;;;22.41;86.54
66176;BME280;52977;44.816;20.538;2023-08-30T05:24:23;98561.00;;;22.45;91.23
66176;BME280;52977;44.816;20.538;2023-08-30T05:26:49;98558.31;;;22.42;93.27
66176;BME280;52977;44.816;20.538;2023-08-30T05:29:17;98539.97;;;22.24;94.44
66176;BME280;52977;44.816;20.538;2023-08-30T05:31:44;98471.28;;;21.68;96.60
66176;BME280;52977;44.816;20.538;2023-08-30T05:34:28;98490.84;;;21.81;97.35
66176;BME280;52977;44.816;20.538;2023-08-30T05:37:05;98544.34;;;22.05;99.17
66176;BME280;52977;44.816;20.538;2023-08-30T05:39:50;98489.38;;;21.76;100.00
66176;BME280;52977;44.816;20.538;2023-08-30T05:42:16;98493.91;;;21.66;100.00
66176;BME280;52977;44.816;20.538;2023-08-30T05:44:42;98529.47;;;21.95;100.00
66176;BME280;52977;44.816;20.538;2023-08-30T05:47:08;98523.31;;;22.04;98.74
66176;BME280;52977;44.816;20.538;2023-08-30T05:49:40;98530.84;;;22.24;98.42
66176;BME280;52977;44.816;20.538;2023-08-30T05:52:06;98542.81;;;22.41;98.44
66176;BME280;52977;44.816;20.538;2023-08-30T05:54:32;98568.75;;;22.54;98.40
66176;BME280;52977;44.816;20.538;2023-08-30T05:56:59;98537.56;;;22.26;100.00
66176;BME280;52977;44.816;20.538;2023-08-30T05:59:26;98546.59;;;22.30;100.00
66176;BME280;52977;44.816;20.538;2023-08-30T06:01:53;98588.50;;;22.60;100.00
66176;BME280;52977;44.816;20.538;2023-08-30T06:04:18;98561.84;;;22.42;100.00
66176;BME280;52977;44.816;20.538;2023-08-30T06:06:46;98575.19;;;22.51;100.00
66176;BME280;52977;44.816;20.538;2023-08-30T06:09:12;98564.50;;;22.49;99.21
66176;BME280;52977;44.816;20.538;2023-08-30T06:11:38;98586.16;;;22.58;99.32
66176;BME280;52977;44.816;20.538;2023-08-30T06:14:05;98591.22;;;22.63;99.13
66176;BME280;52977;44.816;20.538;2023-08-30T06:16:31;98549.63;;;22.40;98.06
66176;BME280;52977;44.816;20.538;2023-08-30T06:18:57;98602.44;;;22.76;97.24
66176;BME280;52977;44.816;20.538;2023-08-30T06:21:25;98616.91;;;22.67;97.29
66176;BME280;52977;44.816;20.538;2023-08-30T06:23:51;98575.47;;;22.36;97.30
66176;BME280;52977;44.816;20.538;2023-08-30T06:26:17;98589.44;;;22.53;96.31
66176;BME280;52977;44.816;20.538;2023-08-30T06:28:44;98637.47;;;22.74;96.40
66176;BME280;52977;44.816;20.538;2023-08-30T06:31:10;98605.63;;;22.58;95.59
66176;BME280;52977;44.816;20.538;2023-08-30T06:33:36;98650.72;;;22.86;94.70
66176;BME280;52977;44.816;20.538;2023-08-30T06:36:04;98649.19;;;22.81;91.37
66176;BME280;52977;44.816;20.538;2023-08-30T06:38:31;98653.72;;;22.75;87.43
66176;BME280;52977;44.816;20.538;2023-08-30T06:41:00;98612.75;;;22.39;87.12
66176;BME280;52977;44.816;20.538;2023-08-30T06:43:26;98591.78;;;22.14;85.51
66176;BME280;52977;44.816;20.538;2023-08-30T06:45:52;98648.25;;;22.51;85.83
66176;BME280;52977;44.816;20.538;2023-08-30T06:48:18;98657.31;;;22.56;86.30
66176;BME280;52977;44.816;20.538;2023-08-30T06:50:44;98610.53;;;22.30;85.94
66176;BME280;52977;44.816;20.538;2023-08-30T06:53:09;98599.47;;;22.27;85.65
66176;BME280;52977;44.816;20.538;2023-08-30T06:55:35;98656.16;;;22.53;85.13
66176;BME280;52977;44.816;20.538;2023-08-30T06:58:03;98620.22;;;22.42;85.82
66176;BME280;52977;44.816;20.538;2023-08-30T07:00:29;98640.75;;;22.68;85.21
66176;BME280;52977;44.816;20.538;2023-08-30T07:02:55;98624.16;;;22.45;83.78
66176;BME280;52977;44.816;20.538;2023-08-30T07:05:22;98660.56;;;22.70;84.39
66176;BME280;52977;44.816;20.538;2023-08-30T07:07:48;98607.91;;;22.43;83.74
66176;BME280;52977;44.816;20.538;2023-08-30T07:10:14;98649.72;;;22.76;83.13
66176;BME280;52977;44.816;20.538;2023-08-30T07:12:39;98643.34;;;22.59;83.65
66176;BME280;52977;44.816;20.538;2023-08-30T07:15:05;98661.00;;;22.69;84.13
66176;BME280;52977;44.816;20.538;2023-08-30T07:17:31;98636.34;;;22.51;83.69
66176;BME280;52977;44.816;20.538;2023-08-30T07:19:57;98663.69;;;22.73;83.94
66176;BME280;52977;44.816;20.538;2023-08-30T07:22:22;98652.41;;;22.80;82.76
66176;BME280;52977;44.816;20.538;2023-08-30T07:24:49;98584.75;;;22.30;83.42
66176;BME280;52977;44.816;20.538;2023-08-30T07:27:14;98677.00;;;22.81;83.46
66176;BME280;52977;44.816;20.538;2023-08-30T07:29:40;98639.31;;;22.60;82.96
66176;BME280;52977;44.816;20.538;2023-08-30T07:32:07;98674.22;;;22.81;81.15
66176;BME280;52977;44.816;20.538;2023-08-30T07:34:33;98683.44;;;22.78;78.01
66176;BME280;52977;44.816;20.538;2023-08-30T07:36:58;98687.25;;;22.68;79.47
66176;BME280;52977;44.816;20.538;2023-08-30T07:39:24;98631.06;;;22.36;79.85
66176;BME280;52977;44.816;20.538;2023-08-30T07:41:50;98668.81;;;22.74;80.25
66176;BME280;52977;44.816;20.538;2023-08-30T07:44:15;98690.38;;;22.90;77.15
66176;BME280;52977;44.816;20.538;2023-08-30T07:46:41;98606.69;;;22.44;73.81
66176;BME280;52977;44.816;20.538;2023-08-30T07:49:07;98630.44;;;22.49;74.07
66176;BME280;52977;44.816;20.538;2023-08-30T07:51:33;98627.09;;;22.38;73.92
66176;BME280;52977;44.816;20.538;2023-08-30T07:53:59;98693.72;;;22.81;73.08
66176;BME280;52977;44.816;20.538;2023-08-30T07:56:25;98679.19;;;22.74;72.63
66176;BME280;52977;44.816;20.538;2023-08-30T07:58:51;98667.41;;;22.66;70.34
66176;BME280;52977;44.816;20.538;2023-08-30T08:01:18;98699.16;;;22.89;68.36
66176;BME280;52977;44.816;20.538;2023-08-30T08:03:44;98689.38;;;22.80;68.50
66176;BME280;52977;44.816;20.538;2023-08-30T08:06:10;98702.84;;;22.82;69.31
66176;BME280;52977;44.816;20.538;2023-08-30T08:08:36;98702.06;;;22.81;67.71
66176;BME280;52977;44.816;20.538;2023-08-30T08:11:02;98655.09;;;22.47;67.70
66176;BME280;52977;44.816;20.538;2023-08-30T08:13:28;98702.56;;;22.76;68.52
66176;BME280;52977;44.816;20.538;2023-08-30T08:15:57;98654.72;;;22.45;68.75
66176;BME280;52977;44.816;20.538;2023-08-30T08:18:24;98693.03;;;22.57;69.08
66176;BME280;52977;44.816;20.538;2023-08-30T08:20:50;98693.88;;;22.54;69.07
66176;BME280;52977;44.816;20.538;2023-08-30T08:23:16;98646.53;;;22.17;69.16
66176;BME280;52977;44.816;20.538;2023-08-30T08:25:42;98703.78;;;22.75;66.47
66176;BME280;52977;44.816;20.538;2023-08-30T08:28:08;98692.00;;;22.67;65.48
66176;BME280;52977;44.816;20.538;2023-08-30T08:30:34;98639.91;;;22.31;65.69
66176;BME280;52977;44.816;20.538;2023-08-30T08:33:01;98675.63;;;22.53;66.53
66176;BME280;52977;44.816;20.538;2023-08-30T08:35:26;98690.47;;;22.66;66.91
66176;BME280;52977;44.816;20.538;2023-08-30T08:37:52;98654.72;;;22.45;66.25
66176;BME280;52977;44.816;20.538;2023-08-30T08:40:19;98712.91;;;22.76;65.88
66176;BME280;52977;44.816;20.538;2023-08-30T08:42:45;98707.72;;;22.78;65.40
66176;BME280;52977;44.816;20.538;2023-08-30T08:45:13;98702.03;;;22.65;65.57
66176;BME280;52977;44.816;20.538;2023-08-30T08:47:39;98712.91;;;22.76;65.02
66176;BME280;52977;44.816;20.538;2023-08-30T08:50:06;98707.34;;;22.76;66.87
66176;BME280;52977;44.816;20.538;2023-08-30T08:52:33;98713.63;;;22.80;65.43
66176;BME280;52977;44.816;20.538;2023-08-30T08:54:59;98705.28;;;22.80;66.06
66176;BME280;52977;44.816;20.538;2023-08-30T08:57:26;98654.97;;;22.54;66.87
66176;BME280;52977;44.816;20.538;2023-08-30T08:59:56;98687.03;;;22.79;67.41
66176;BME280;52977;44.816;20.538;2023-08-30T09:02:23;98608.63;;;22.27;65.92
66176;BME280;52977;44.816;20.538;2023-08-30T09:04:50;98686.66;;;22.77;65.34
66176;BME280;52977;44.816;20.538;2023-08-30T09:07:18;98695.00;;;22.77;66.82
66176;BME280;52977;44.816;20.538;2023-08-30T09:09:45;98690.59;;;22.79;66.45
66176;BME280;52977;44.816;20.538;2023-08-30T09:12:12;98679.41;;;22.83;66.87
66176;BME280;52977;44.816;20.538;2023-08-30T09:14:39;98604.53;;;22.52;66.55
66176;BME280;52977;44.816;20.538;2023-08-30T09:17:05;98649.28;;;22.78;68.58
66176;BME280;52977;44.816;20.538;2023-08-30T09:19:31;98671.88;;;23.00;69.42
66176;BME280;52977;44.816;20.538;2023-08-30T09:21:58;98631.03;;;22.77;71.82
66176;BME280;52977;44.816;20.538;2023-08-30T09:24:25;98624.59;;;22.80;70.04
66176;BME280;52977;44.816;20.538;2023-08-30T09:26:53;98679.75;;;23.21;70.83
66176;BME280;52977;44.816;20.538;2023-08-30T09:29:21;98673.31;;;23.25;71.30
66176;BME280;52977;44.816;20.538;2023-08-30T09:31:51;98683.16;;;23.29;71.36
66176;BME280;52977;44.816;20.538;2023-08-30T09:34:22;98676.66;;;23.36;69.85
66176;BME280;52977;44.816;20.538;2023-08-30T09:36:50;98635.84;;;23.09;69.59
66176;BME280;52977;44.816;20.538;2023-08-30T09:39:16;98599.59;;;22.96;69.34
66176;BME280;52977;44.816;20.538;2023-08-30T09:41:44;98637.72;;;23.16;69.76
66176;BME280;52977;44.816;20.538;2023-08-30T09:44:18;98670.34;;;23.48;73.77
66176;BME280;52977;44.816;20.538;2023-08-30T09:46:45;98692.31;;;23.63;77.03
66176;BME280;52977;44.816;20.538;2023-08-30T09:49:12;98689.59;;;23.76;75.82
66176;BME280;52977;44.816;20.538;2023-08-30T09:51:39;98703.53;;;23.76;73.29
66176;BME280;52977;44.816;20.538;2023-08-30T09:54:19;98695.88;;;23.63;74.21
66176;BME280;52977;44.816;20.538;2023-08-30T09:56:47;98676.72;;;23.49;73.16
66176;BME280;52977;44.816;20.538;2023-08-30T09:59:14;98706.47;;;23.52;72.04
66176;BME280;52977;44.816;20.538;2023-08-30T10:01:42;98676.69;;;23.16;72.42
66176;BME280;52977;44.816;20.538;2023-08-30T10:04:10;98710.28;;;23.25;73.36
66176;BME280;52977;44.816;20.538;2023-08-30T10:06:39;98722.91;;;23.30;74.64
66176;BME280;52977;44.816;20.538;2023-08-30T10:09:08;98656.44;;;22.95;74.38
66176;BME280;52977;44.816;20.538;2023-08-30T10:11:35;98699.75;;;23.33;73.92
66176;BME280;52977;44.816;20.538;2023-08-30T10:14:07;98671.81;;;23.20;74.22
66176;BME280;52977;44.816;20.538;2023-08-30T10:16:49;98702.13;;;23.51;74.03
66176;BME280;52977;44.816;20.538;2023-08-30T10:21:47;98712.81;;;23.52;73.46
66176;BME280;52977;44.816;20.538;2023-08-30T10:24:18;98682.72;;;23.47;73.70
66176;BME280;52977;44.816;20.538;2023-08-30T10:26:46;98634.38;;;23.04;75.26
66176;BME280;52977;44.816;20.538;2023-08-30T10:29:16;98689.06;;;23.48;75.68
66176;BME280;52977;44.816;20.538;2023-08-30T10:31:43;98668.38;;;23.49;74.18
66176;BME280;52977;44.816;20.538;2023-08-30T10:34:14;98687.41;;;24.00;70.97
66176;BME280;52977;44.816;20.538;2023-08-30T10:36:43;98690.66;;;24.28;71.41
66176;BME280;52977;44.816;20.538;2023-08-30T10:39:13;98669.19;;;24.41;69.62
66176;BME280;52977;44.816;20.538;2023-08-30T10:41:58;98679.16;;;24.55;70.06
66176;BME280;52977;44.816;20.538;2023-08-30T10:44:24;98658.41;;;24.56;70.40
66176;BME280;52977;44.816;20.538;2023-08-30T10:46:54;98648.56;;;24.51;69.18
66176;BME280;52977;44.816;20.538;2023-08-30T10:49:21;98656.00;;;24.42;69.12
66176;BME280;52977;44.816;20.538;2023-08-30T10:51:55;98657.66;;;24.39;69.44
66176;BME280;52977;44.816;20.538;2023-08-30T10:54:23;98676.91;;;24.50;70.67
66176;BME280;52977;44.816;20.538;2023-08-30T10:56:58;98673.63;;;24.38;69.01
66176;BME280;52977;44.816;20.538;2023-08-30T11:00:08;98685.31;;;24.33;68.58
66176;BME280;52977;44.816;20.538;2023-08-30T11:02:37;98638.81;;;24.01;67.81
66176;BME280;52977;44.816;20.538;2023-08-30T11:05:05;98685.19;;;24.24;67.16
66176;BME280;52977;44.816;20.538;2023-08-30T11:07:32;98673.97;;;24.11;68.12
66176;BME280;52977;44.816;20.538;2023-08-30T11:09:58;98616.22;;;23.66;67.36
66176;BME280;52977;44.816;20.538;2023-08-30T11:12:25;98685.22;;;24.08;66.44
66176;BME280;52977;44.816;20.538;2023-08-30T11:14:54;98689.13;;;24.10;65.51
66176;BME280;52977;44.816;20.538;2023-08-30T11:17:20;98699.25;;;24.04;66.30
66176;BME280;52977;44.816;20.538;2023-08-30T11:19:49;98696.75;;;23.93;67.41
66176;BME280;52977;44.816;20.538;2023-08-30T11:22:17;98693.78;;;24.00;67.22
66176;BME280;52977;44.816;20.538;2023-08-30T11:24:47;98699.75;;;24.15;63.73
66176;BME280;52977;44.816;20.538;2023-08-30T11:27:13;98684.19;;;24.31;60.24
66176;BME280;52977;44.816;20.538;2023-08-30T11:29:41;98674.91;;;24.50;62.84
66176;BME280;52977;44.816;20.538;2023-08-30T11:32:08;98668.81;;;24.68;65.85
66176;BME280;52977;44.816;20.538;2023-08-30T11:34:34;98682.69;;;24.98;66.48
66176;BME280;52977;44.816;20.538;2023-08-30T11:37:00;98683.41;;;25.15;67.54
66176;BME280;52977;44.816;20.538;2023-08-30T11:39:28;98671.78;;;25.16;68.06
66176;BME280;52977;44.816;20.538;2023-08-30T11:41:55;98671.25;;;25.34;68.14
66176;BME280;52977;44.816;20.538;2023-08-30T11:44:28;98656.59;;;25.30;69.24
66176;BME280;52977;44.816;20.538;2023-08-30T11:47:00;98596.19;;;24.72;70.39
66176;BME280;52977;44.816;20.538;2023-08-30T11:49:28;98661.03;;;24.89;69.91
66176;BME280;52977;44.816;20.538;2023-08-30T11:51:55;98667.50;;;24.86;70.41
66176;BME280;52977;44.816;20.538;2023-08-30T11:54:23;98676.13;;;25.04;69.51
66176;BME280;52977;44.816;20.538;2023-08-30T11:56:50;98637.81;;;24.92;68.51
66176;BME280;52977;44.816;20.538;2023-08-30T11:59:20;98673.91;;;25.38;68.21
66176;BME280;52977;44.816;20.538;2023-08-30T12:01:52;98692.22;;;25.26;68.81
66176;BME280;52977;44.816;20.538;2023-08-30T12:04:18;98681.16;;;25.10;68.42
66176;BME280;52977;44.816;20.538;2023-08-30T12:06:54;98661.03;;;25.02;67.31
66176;BME280;52977;44.816;20.538;2023-08-30T12:09:20;98673.78;;;25.29;66.34
66176;BME280;52977;44.816;20.538;2023-08-30T12:11:49;98666.19;;;25.16;65.92
66176;BME280;52977;44.816;20.538;2023-08-30T12:14:15;98677.78;;;25.02;66.48
66176;BME280;52977;44.816;20.538;2023-08-30T12:16:43;98674.31;;;24.85;66.64
66176;BME280;52977;44.816;20.538;2023-08-30T12:19:11;98676.56;;;25.16;65.45
66176;BME280;52977;44.816;20.538;2023-08-30T12:21:47;98665.66;;;25.34;64.28
66176;BME280;52977;44.816;20.538;2023-08-30T12:24:13;98665.75;;;25.56;62.49
66176;BME280;52977;44.816;20.538;2023-08-30T12:26:39;98666.28;;;25.64;61.26
66176;BME280;52977;44.816;20.538;2023-08-30T12:29:05;98655.19;;;25.73;61.60
66176;BME280;52977;44.816;20.538;2023-08-30T12:31:33;98641.53;;;25.75;58.08
66176;BME280;52977;44.816;20.538;2023-08-30T12:33:59;98634.94;;;25.82;59.10
66176;BME280;52977;44.816;20.538;2023-08-30T12:36:25;98653.38;;;26.15;54.70
66176;BME280;52977;44.816;20.538;2023-08-30T12:38:51;98635.38;;;26.16;51.74
66176;BME280;52977;44.816;20.538;2023-08-30T12:41:17;98643.50;;;26.23;51.70
66176;BME280;52977;44.816;20.538;2023-08-30T12:43:44;98646.31;;;26.23;51.00
66176;BME280;52977;44.816;20.538;2023-08-30T12:46:10;98630.06;;;26.31;50.48
66176;BME280;52977;44.816;20.538;2023-08-30T12:48:37;98589.25;;;26.20;51.26
66176;BME280;52977;44.816;20.538;2023-08-30T12:51:03;98640.81;;;26.64;52.15
66176;BME280;52977;44.816;20.538;2023-08-30T12:53:29;98641.16;;;26.66;53.87
66176;BME280;52977;44.816;20.538;2023-08-30T12:55:55;98654.44;;;26.74;54.47
66176;BME280;52977;44.816;20.538;2023-08-30T12:58:21;98633.72;;;26.72;54.50
66176;BME280;52977;44.816;20.538;2023-08-30T13:00:47;98621.88;;;26.68;55.56